createdAt,value
2023-05-04T00:00:40.715Z,50.30
2023-05-04T00:03:07.865Z,50.30
2023-05-04T00:05:35.089Z,50.30
2023-05-04T00:08:02.126Z,50.30
2023-05-04T00:10:29.304Z,50.30
2023-05-04T00:12:56.404Z,50.30
2023-05-04T00:15:23.962Z,50.20
2023-05-04T00:17:51.106Z,50.20
2023-05-04T00:20:18.412Z,50.10
2023-05-04T00:22:45.534Z,50.00
2023-05-04T00:25:12.703Z,49.90
2023-05-04T00:27:39.818Z,49.80
2023-05-04T00:30:07.670Z,49.70
2023-05-04T00:32:34.711Z,49.70
2023-05-04T00:35:01.909Z,49.70
2023-05-04T00:37:29.037Z,49.70
2023-05-04T00:39:56.092Z,49.70
2023-05-04T00:42:23.169Z,49.60
2023-05-04T00:44:50.633Z,49.60
2023-05-04T00:47:19.941Z,49.60
2023-05-04T00:49:47.185Z,49.60
2023-05-04T00:52:15.823Z,49.60
2023-05-04T00:54:45.849Z,49.60
2023-05-04T00:57:13.391Z,49.60
2023-05-04T00:59:40.501Z,49.60
2023-05-04T01:02:07.670Z,49.60
2023-05-04T01:04:34.910Z,49.60
2023-05-04T01:07:26.698Z,49.60
2023-05-04T01:10:02.676Z,49.60
2023-05-04T01:12:56.608Z,49.60
2023-05-04T01:15:24.215Z,49.60
2023-05-04T01:17:51.316Z,49.60
2023-05-04T01:20:18.490Z,50.20
2023-05-04T01:22:45.772Z,49.70
2023-05-04T01:25:13.079Z,49.60
2023-05-04T01:27:52.366Z,49.60
2023-05-04T01:30:26.096Z,49.70
2023-05-04T01:32:53.944Z,49.60
2023-05-04T01:35:21.319Z,49.60
2023-05-04T01:37:48.474Z,49.60
2023-05-04T01:40:15.926Z,49.60
2023-05-04T01:42:43.043Z,49.70
2023-05-04T01:45:10.607Z,49.70
2023-05-04T01:47:37.731Z,49.80
2023-05-04T01:50:05.895Z,49.80
2023-05-04T01:52:33.318Z,49.80
2023-05-04T01:55:00.475Z,49.80
2023-05-04T01:57:27.589Z,49.90
2023-05-04T01:59:54.627Z,49.90
2023-05-04T02:02:21.806Z,49.90
2023-05-04T02:04:49.024Z,49.90
2023-05-04T02:07:16.123Z,49.90
2023-05-04T02:09:43.654Z,49.80
2023-05-04T02:12:10.793Z,49.70
2023-05-04T02:14:37.820Z,49.60
2023-05-04T02:17:04.895Z,49.60
2023-05-04T02:19:31.982Z,49.60
2023-05-04T02:21:59.038Z,49.60
2023-05-04T02:24:26.389Z,49.60
2023-05-04T02:26:53.434Z,49.60
2023-05-04T02:29:20.508Z,49.60
2023-05-04T02:31:47.633Z,49.60
2023-05-04T02:34:14.771Z,49.60
2023-05-04T02:36:42.251Z,49.50
2023-05-04T02:39:09.369Z,49.60
2023-05-04T02:41:36.519Z,49.60
2023-05-04T02:44:03.596Z,49.60
2023-05-04T02:46:32.574Z,49.50
2023-05-04T02:48:59.633Z,49.50
2023-05-04T02:51:26.648Z,49.60
2023-05-04T02:53:53.728Z,49.50
2023-05-04T02:56:20.729Z,49.50
2023-05-04T02:58:47.810Z,49.60
2023-05-04T03:01:14.891Z,49.50
2023-05-04T03:03:42.029Z,49.50
2023-05-04T03:06:09.122Z,49.60
2023-05-04T03:08:36.257Z,49.50
2023-05-04T03:11:03.377Z,49.50
2023-05-04T03:13:30.432Z,49.50
2023-05-04T03:15:57.536Z,49.60
2023-05-04T03:18:24.715Z,49.60
2023-05-04T03:20:51.801Z,49.60
2023-05-04T03:23:18.928Z,49.60
2023-05-04T03:25:45.980Z,50.20
2023-05-04T03:28:13.081Z,49.70
2023-05-04T03:30:40.214Z,49.70
2023-05-04T03:33:07.482Z,49.70
2023-05-04T03:35:34.547Z,49.80
2023-05-04T03:38:01.714Z,49.80
2023-05-04T03:40:28.860Z,49.80
2023-05-04T03:42:56.001Z,49.80
2023-05-04T03:45:23.757Z,49.80
2023-05-04T03:47:50.907Z,49.80
2023-05-04T03:50:18.134Z,49.80
2023-05-04T03:52:45.181Z,49.70
2023-05-04T03:55:12.242Z,49.60
2023-05-04T03:57:39.434Z,49.50
2023-05-04T04:00:07.338Z,49.40
2023-05-04T04:02:34.648Z,49.40
2023-05-04T04:05:01.754Z,49.40
2023-05-04T04:07:28.909Z,49.40
2023-05-04T04:09:55.955Z,49.40
2023-05-04T04:12:23.042Z,49.30
2023-05-04T04:14:52.066Z,49.30
2023-05-04T04:17:19.422Z,49.30
2023-05-04T04:19:46.573Z,49.20
2023-05-04T04:22:13.652Z,49.30
2023-05-04T04:24:40.713Z,49.30
2023-05-04T04:27:07.790Z,49.20
2023-05-04T04:29:35.741Z,49.20
2023-05-04T04:32:03.687Z,49.20
2023-05-04T04:34:30.807Z,49.10
2023-05-04T04:36:59.023Z,49.00
2023-05-04T04:39:26.210Z,48.80
2023-05-04T04:41:53.530Z,48.60
2023-05-04T04:44:21.154Z,48.50
2023-05-04T04:46:48.607Z,48.50
2023-05-04T04:49:17.895Z,48.50
2023-05-04T04:51:45.211Z,48.50
2023-05-04T04:54:12.332Z,48.50
2023-05-04T04:56:40.768Z,48.40
2023-05-04T04:59:08.012Z,48.30
2023-05-04T05:01:35.193Z,48.30
2023-05-04T05:04:02.414Z,48.20
2023-05-04T05:06:29.833Z,48.10
2023-05-04T05:08:57.434Z,48.10
2023-05-04T05:11:24.497Z,48.00
2023-05-04T05:13:51.634Z,48.00
2023-05-04T05:16:18.699Z,47.90
2023-05-04T05:18:46.164Z,47.80
2023-05-04T05:21:15.060Z,47.70
2023-05-04T05:23:42.140Z,47.70
2023-05-04T05:26:09.272Z,47.90
2023-05-04T05:28:37.319Z,47.80
2023-05-04T05:31:04.892Z,47.80
2023-05-04T05:33:32.398Z,47.80
2023-05-04T05:35:59.470Z,47.70
2023-05-04T05:38:26.931Z,47.80
2023-05-04T05:40:54.058Z,47.80
2023-05-04T05:43:21.151Z,47.80
2023-05-04T05:45:48.896Z,47.80
2023-05-04T05:48:16.365Z,47.80
2023-05-04T05:50:43.464Z,47.90
2023-05-04T05:53:10.666Z,47.90
2023-05-04T05:55:40.813Z,47.80
2023-05-04T05:58:08.832Z,47.60
2023-05-04T06:00:35.919Z,47.50
2023-05-04T06:03:03.123Z,47.40
2023-05-04T06:05:30.576Z,47.30
2023-05-04T06:07:57.667Z,47.30
2023-05-04T06:10:25.130Z,47.10
2023-05-04T06:12:52.291Z,46.90
2023-05-04T06:15:19.842Z,46.90
2023-05-04T06:17:48.941Z,46.80
2023-05-04T06:20:16.384Z,46.80
2023-05-04T06:22:44.653Z,46.80
2023-05-04T06:25:11.994Z,46.70
2023-05-04T06:27:39.211Z,46.70
2023-05-04T06:30:08.261Z,46.50
2023-05-04T06:32:35.720Z,46.40
2023-05-04T06:35:04.287Z,46.90
2023-05-04T06:37:31.462Z,46.30
2023-05-04T06:39:58.687Z,46.20
2023-05-04T06:42:29.094Z,46.20
2023-05-04T06:44:57.355Z,46.10
2023-05-04T06:47:24.474Z,46.00
2023-05-04T06:49:51.515Z,45.90
2023-05-04T06:52:18.716Z,45.80
2023-05-04T06:54:46.402Z,45.90
2023-05-04T06:57:14.008Z,45.70
2023-05-04T06:59:41.350Z,45.40
2023-05-04T07:02:08.658Z,45.40
2023-05-04T07:04:35.941Z,45.30
2023-05-04T07:07:03.891Z,45.10
2023-05-04T07:09:32.641Z,44.80
2023-05-04T07:11:59.729Z,44.90
2023-05-04T07:14:26.878Z,44.80
2023-05-04T07:16:53.920Z,44.70
2023-05-04T07:19:21.005Z,44.70
2023-05-04T07:21:48.957Z,44.50
2023-05-04T07:24:16.190Z,44.30
2023-05-04T07:26:43.244Z,44.20
2023-05-04T07:29:10.282Z,44.30
2023-05-04T07:31:38.516Z,44.20
2023-05-04T07:34:06.320Z,44.20
2023-05-04T07:36:36.032Z,44.20
2023-05-04T07:39:03.364Z,44.20
2023-05-04T07:41:30.634Z,44.20
2023-05-04T07:43:57.822Z,44.10
2023-05-04T07:46:25.941Z,44.00
2023-05-04T07:48:53.073Z,44.00
2023-05-04T07:51:20.700Z,44.20
2023-05-04T07:53:47.960Z,44.10
2023-05-04T07:56:15.109Z,43.90
2023-05-04T07:58:43.322Z,44.50
2023-05-04T08:01:10.413Z,43.90
2023-05-04T08:03:37.469Z,44.10
2023-05-04T08:06:04.754Z,43.90
2023-05-04T08:08:31.936Z,43.80
2023-05-04T08:14:49.399Z,43.60
2023-05-04T08:17:16.581Z,43.60
2023-05-04T08:19:44.052Z,43.60
2023-05-04T08:22:11.843Z,43.50
2023-05-04T08:24:39.895Z,43.40
2023-05-04T08:27:08.774Z,43.30
2023-05-04T08:29:37.685Z,42.60
2023-05-04T08:32:06.121Z,41.50
2023-05-04T08:34:33.264Z,41.20
2023-05-04T08:37:00.544Z,41.40
2023-05-04T08:39:27.628Z,41.70
2023-05-04T08:41:54.880Z,42.00
2023-05-04T08:44:22.613Z,42.30
2023-05-04T08:46:54.215Z,42.40
2023-05-04T08:49:22.901Z,42.50
2023-05-04T08:51:51.223Z,42.60
2023-05-04T08:54:19.038Z,42.60
2023-05-04T08:56:47.321Z,42.70
2023-05-04T08:59:20.602Z,42.70
2023-05-04T09:01:52.218Z,42.70
2023-05-04T09:04:20.196Z,42.70
2023-05-04T09:06:50.554Z,42.70
2023-05-04T09:09:18.098Z,42.60
2023-05-04T09:11:45.898Z,42.50
2023-05-04T09:14:13.312Z,42.50
2023-05-04T09:16:40.465Z,42.50
2023-05-04T09:19:21.261Z,42.60
2023-05-04T09:21:49.952Z,42.50
2023-05-04T09:24:28.159Z,42.40
2023-05-04T09:26:55.592Z,42.40
2023-05-04T09:29:25.763Z,42.30
2023-05-04T09:31:53.147Z,42.30
2023-05-04T09:34:21.598Z,42.30
2023-05-04T09:37:02.626Z,42.20
2023-05-04T09:39:30.972Z,41.80
2023-05-04T09:41:58.038Z,41.70
2023-05-04T09:44:28.862Z,42.00
2023-05-04T09:46:58.516Z,42.10
2023-05-04T09:49:37.065Z,42.20
2023-05-04T09:52:06.024Z,42.20
2023-05-04T09:54:41.453Z,42.20
2023-05-04T09:57:15.734Z,42.20
2023-05-04T09:59:43.664Z,42.20
2023-05-04T10:02:22.047Z,42.30
2023-05-04T10:04:51.894Z,42.30
2023-05-04T10:07:21.192Z,42.30
2023-05-04T10:09:51.396Z,42.30
2023-05-04T10:12:18.620Z,42.30
2023-05-04T10:14:47.249Z,42.30
2023-05-04T10:17:54.270Z,42.30
2023-05-04T10:21:00.550Z,42.20
2023-05-04T10:23:57.725Z,42.30
2023-05-04T10:27:04.754Z,42.40
2023-05-04T10:29:33.584Z,42.30
2023-05-04T10:32:01.746Z,42.20
2023-05-04T10:34:31.692Z,42.10
2023-05-04T10:37:00.507Z,42.10
2023-05-04T10:39:30.398Z,42.00
2023-05-04T10:42:06.082Z,42.00
2023-05-04T10:44:49.554Z,42.00
2023-05-04T10:47:26.948Z,42.00
2023-05-04T10:50:04.742Z,41.90
2023-05-04T10:52:33.737Z,41.80
2023-05-04T10:55:02.886Z,41.80
2023-05-04T10:57:30.629Z,41.70
2023-05-04T10:59:59.185Z,41.60
2023-05-04T11:02:27.591Z,41.00
2023-05-04T11:05:07.760Z,41.40
2023-05-04T11:07:39.949Z,41.60
2023-05-04T11:10:12.527Z,41.70
2023-05-04T11:12:40.795Z,41.70
2023-05-04T11:15:11.041Z,41.60
2023-05-04T11:17:53.056Z,41.50
2023-05-04T11:20:25.052Z,41.20
2023-05-04T11:22:53.884Z,40.50
2023-05-04T11:25:28.527Z,40.60
2023-05-04T11:27:55.891Z,40.80
2023-05-04T11:30:32.765Z,41.10
2023-05-04T11:33:01.377Z,40.90
2023-05-04T11:35:28.611Z,41.20
2023-05-04T11:37:56.556Z,41.40
2023-05-04T11:40:25.709Z,41.60
2023-05-04T11:42:56.917Z,41.50
2023-05-04T11:45:29.921Z,41.60
2023-05-04T11:47:57.721Z,41.70
2023-05-04T11:50:27.046Z,41.70
2023-05-04T11:53:09.507Z,41.80
2023-05-04T11:55:40.223Z,41.80
2023-05-04T11:58:10.414Z,41.60
2023-05-04T12:00:45.808Z,41.60
2023-05-04T12:03:18.252Z,41.70
2023-05-04T12:05:50.346Z,41.80
2023-05-04T12:08:30.046Z,41.90
2023-05-04T12:11:20.505Z,41.80
2023-05-04T12:13:50.079Z,41.80
2023-05-04T12:16:19.138Z,41.80
2023-05-04T12:18:47.551Z,41.80
2023-05-04T12:21:19.556Z,41.80
2023-05-04T12:23:47.157Z,41.90
2023-05-04T12:26:17.393Z,41.80
2023-05-04T12:28:45.953Z,41.80
2023-05-04T12:31:13.164Z,41.80
2023-05-04T12:33:40.545Z,41.80
2023-05-04T12:36:09.004Z,41.80
2023-05-04T12:38:37.731Z,41.70
2023-05-04T12:41:06.055Z,41.60
2023-05-04T12:43:33.476Z,41.50
2023-05-04T12:46:00.986Z,41.50
2023-05-04T12:48:32.068Z,41.60
2023-05-04T12:51:00.152Z,41.60
2023-05-04T12:53:30.105Z,41.60
2023-05-04T12:55:57.599Z,41.60
2023-05-04T12:58:24.792Z,41.60
2023-05-04T13:00:52.040Z,41.70
2023-05-04T13:03:19.454Z,42.40
2023-05-04T13:05:49.807Z,40.80
2023-05-04T13:08:18.537Z,40.80
2023-05-04T13:10:47.316Z,40.80
2023-05-04T13:13:17.335Z,41.00
2023-05-04T13:15:45.054Z,41.40
2023-05-04T13:18:13.033Z,41.50
2023-05-04T13:20:41.002Z,41.70
2023-05-04T13:23:08.293Z,41.80
2023-05-04T13:25:35.763Z,41.80
2023-05-04T13:28:02.910Z,41.80
2023-05-04T13:30:30.226Z,41.80
2023-05-04T13:32:57.498Z,41.80
2023-05-04T13:35:24.842Z,41.80
2023-05-04T13:37:52.044Z,41.80
2023-05-04T13:40:19.218Z,41.70
2023-05-04T13:42:46.449Z,41.90
2023-05-04T13:45:14.239Z,42.30
2023-05-04T13:47:41.589Z,42.10
2023-05-04T13:50:09.376Z,42.40
2023-05-04T13:52:36.983Z,42.50
2023-05-04T13:55:04.959Z,42.40
2023-05-04T13:57:33.182Z,42.40
2023-05-04T14:00:06.654Z,42.40
2023-05-04T14:02:35.184Z,42.40
2023-05-04T14:05:04.166Z,42.30
2023-05-04T14:07:31.602Z,42.30
2023-05-04T14:09:59.983Z,42.30
2023-05-04T14:12:27.665Z,42.40
2023-05-04T14:14:54.788Z,42.40
2023-05-04T14:17:22.834Z,42.30
2023-05-04T14:19:50.495Z,42.30
2023-05-04T14:22:17.611Z,42.90
2023-05-04T14:24:44.752Z,42.40
2023-05-04T14:27:11.934Z,42.90
2023-05-04T14:29:38.945Z,42.40
2023-05-04T14:32:06.837Z,42.50
2023-05-04T14:34:34.123Z,42.60
2023-05-04T14:37:01.764Z,42.50
2023-05-04T14:39:28.813Z,42.50
2023-05-04T14:41:57.332Z,42.50
2023-05-04T14:44:26.248Z,42.30
2023-05-04T14:46:53.431Z,42.40
2023-05-04T14:49:35.731Z,42.50
2023-05-04T14:52:04.290Z,42.40
2023-05-04T14:54:31.459Z,42.40
2023-05-04T14:57:00.056Z,42.40
2023-05-04T14:59:28.193Z,42.40
2023-05-04T15:01:55.750Z,41.90
2023-05-04T15:04:23.139Z,41.40
2023-05-04T15:06:50.418Z,41.10
2023-05-04T15:09:17.490Z,41.60
2023-05-04T15:11:44.593Z,42.40
2023-05-04T15:14:11.760Z,42.70
2023-05-04T15:16:38.888Z,43.10
2023-05-04T15:19:07.109Z,43.80
2023-05-04T15:21:34.638Z,44.10
2023-05-04T15:24:02.112Z,44.30
2023-05-04T15:26:31.080Z,44.40
2023-05-04T15:28:58.646Z,44.60
2023-05-04T15:31:25.982Z,44.60
2023-05-04T15:33:53.901Z,44.60
2023-05-04T15:36:21.019Z,44.50
2023-05-04T15:38:48.049Z,44.60
2023-05-04T15:41:15.544Z,44.70
2023-05-04T15:43:42.615Z,44.80
2023-05-04T15:46:09.732Z,44.80
2023-05-04T15:48:36.886Z,44.70
2023-05-04T15:51:04.108Z,44.80
2023-05-04T15:53:31.159Z,44.20
2023-05-04T15:55:58.229Z,43.40
2023-05-04T15:58:25.327Z,42.80
2023-05-04T16:00:52.532Z,42.70
2023-05-04T16:03:19.863Z,43.50
2023-05-04T16:05:47.118Z,43.50
2023-05-04T16:08:14.163Z,43.70
2023-05-04T16:10:41.267Z,43.90
2023-05-04T16:13:11.339Z,44.30
2023-05-04T16:15:39.185Z,47.60
2023-05-04T16:18:06.385Z,50.10
2023-05-04T16:20:33.534Z,50.40
2023-05-04T16:23:00.580Z,50.50
2023-05-04T16:25:27.809Z,50.20
2023-05-04T16:27:54.956Z,47.80
2023-05-04T16:30:22.127Z,46.60
2023-05-04T16:32:49.261Z,46.20
2023-05-04T16:35:16.331Z,45.40
2023-05-04T16:37:43.524Z,45.90
2023-05-04T16:40:14.729Z,47.10
2023-05-04T16:42:45.653Z,47.80
2023-05-04T16:45:16.707Z,48.10
2023-05-04T16:47:44.580Z,47.70
2023-05-04T16:50:12.769Z,47.10
2023-05-04T16:52:40.295Z,46.60
2023-05-04T16:55:11.298Z,46.10
2023-05-04T16:57:39.306Z,45.60
2023-05-04T17:00:07.553Z,45.30
2023-05-04T17:02:36.072Z,45.10
2023-05-04T17:05:06.753Z,44.90
2023-05-04T17:07:34.297Z,44.80
2023-05-04T17:10:01.629Z,44.80
2023-05-04T17:12:29.193Z,44.80
2023-05-04T17:14:56.656Z,44.80
2023-05-04T17:17:23.778Z,44.70
2023-05-04T17:19:50.914Z,44.70
2023-05-04T17:22:18.214Z,44.70
2023-05-04T17:24:45.806Z,44.80
2023-05-04T17:27:13.780Z,45.10
2023-05-04T17:29:41.325Z,45.30
2023-05-04T17:32:08.783Z,45.40
2023-05-04T17:34:36.502Z,45.60
2023-05-04T17:37:03.854Z,45.70
2023-05-04T17:39:33.158Z,45.80
2023-05-04T17:42:00.355Z,45.80
2023-05-04T17:44:28.981Z,46.00
2023-05-04T17:46:56.327Z,46.00
2023-05-04T17:49:23.408Z,46.10
2023-05-04T17:51:50.558Z,46.10
2023-05-04T17:54:17.651Z,46.20
2023-05-04T17:56:45.036Z,46.20
2023-05-04T17:59:12.210Z,46.20
2023-05-04T18:01:39.377Z,46.20
2023-05-04T18:04:06.437Z,46.20
2023-05-04T18:06:34.014Z,46.20
2023-05-04T18:09:01.188Z,46.20
2023-05-04T18:11:28.452Z,46.20
2023-05-04T18:13:56.698Z,46.20
2023-05-04T18:16:24.850Z,46.20
2023-05-04T18:18:52.381Z,46.20
2023-05-04T18:21:19.544Z,46.20
2023-05-04T18:23:47.082Z,46.30
2023-05-04T18:26:22.772Z,46.30
2023-05-04T18:28:50.299Z,46.30
2023-05-04T18:31:17.755Z,46.30
2023-05-04T18:33:45.328Z,46.30
2023-05-04T18:36:12.424Z,46.30
2023-05-04T18:38:39.624Z,46.30
2023-05-04T18:41:07.124Z,46.30
2023-05-04T18:43:34.209Z,46.30
2023-05-04T18:46:08.365Z,46.30
2023-05-04T18:48:35.497Z,46.30
2023-05-04T18:51:02.938Z,46.30
2023-05-04T18:53:30.350Z,46.30
2023-05-04T18:56:02.670Z,46.30
2023-05-04T18:58:30.058Z,46.30
2023-05-04T19:00:57.904Z,46.30
2023-05-04T19:03:25.145Z,46.30
2023-05-04T19:05:53.640Z,46.50
2023-05-04T19:08:20.875Z,46.30
2023-05-04T19:10:48.859Z,46.30
2023-05-04T19:13:16.801Z,46.30
2023-05-04T19:15:44.251Z,46.30
2023-05-04T19:18:12.038Z,46.40
2023-05-04T19:20:39.636Z,46.40
2023-05-04T19:23:06.798Z,46.40
2023-05-04T19:25:35.046Z,46.40
2023-05-04T19:28:08.637Z,46.40
2023-05-04T19:30:37.913Z,46.30
2023-05-04T19:33:06.758Z,46.40
2023-05-04T19:35:34.114Z,46.40
2023-05-04T19:38:06.629Z,46.50
2023-05-04T19:40:34.788Z,46.50
2023-05-04T19:43:02.029Z,46.60
2023-05-04T19:45:29.168Z,46.60
2023-05-04T19:47:56.661Z,46.60
2023-05-04T19:50:23.901Z,46.70
2023-05-04T19:52:51.796Z,46.80
2023-05-04T19:55:19.073Z,46.80
2023-05-04T19:57:47.887Z,46.80
2023-05-04T20:00:17.241Z,46.90
2023-05-04T20:02:44.623Z,47.00
2023-05-04T20:05:12.686Z,47.00
2023-05-04T20:07:39.767Z,47.00
2023-05-04T20:10:08.437Z,47.10
2023-05-04T20:12:35.839Z,47.10
2023-05-04T20:15:03.041Z,47.20
2023-05-04T20:17:30.833Z,47.20
2023-05-04T20:19:57.937Z,47.20
2023-05-04T20:22:25.011Z,47.30
2023-05-04T20:24:52.047Z,47.30
2023-05-04T20:27:19.158Z,47.30
2023-05-04T20:29:46.236Z,47.30
2023-05-04T20:32:13.295Z,47.20
2023-05-04T20:34:42.609Z,47.20
2023-05-04T20:37:09.894Z,47.20
2023-05-04T20:39:36.969Z,47.30
2023-05-04T20:42:05.792Z,47.30
2023-05-04T20:44:33.847Z,47.40
2023-05-04T20:47:00.984Z,47.40
2023-05-04T20:49:28.050Z,47.50
2023-05-04T20:51:55.103Z,47.40
2023-05-04T20:54:22.469Z,47.50
2023-05-04T20:56:49.574Z,47.50
2023-05-04T20:59:16.762Z,47.50
2023-05-04T21:01:43.847Z,47.50
2023-05-04T21:04:11.240Z,47.50
2023-05-04T21:06:38.310Z,47.50
2023-05-04T21:09:05.788Z,47.50
2023-05-04T21:11:33.019Z,47.50
2023-05-04T21:14:00.132Z,47.50
2023-05-04T21:16:27.266Z,47.60
2023-05-04T21:18:54.822Z,47.60
2023-05-04T21:21:21.859Z,47.60
2023-05-04T21:23:48.899Z,47.60
2023-05-04T21:26:15.987Z,47.60
2023-05-04T21:28:43.072Z,47.60
2023-05-04T21:31:10.136Z,47.60
2023-05-04T21:33:37.194Z,47.70
2023-05-04T21:36:14.557Z,47.70
2023-05-04T21:38:42.102Z,47.70
2023-05-04T21:41:16.681Z,47.80
2023-05-04T21:43:44.468Z,48.00
2023-05-04T21:46:12.823Z,47.90
2023-05-04T21:48:40.412Z,47.90
2023-05-04T21:51:07.948Z,47.90
2023-05-04T21:53:35.120Z,48.00
2023-05-04T21:56:09.114Z,48.00
2023-05-04T21:58:40.745Z,48.10
2023-05-04T22:01:08.592Z,48.10
2023-05-04T22:03:36.236Z,48.10
2023-05-04T22:06:03.415Z,48.00
2023-05-04T22:08:30.506Z,48.10
2023-05-04T22:10:58.847Z,48.00
2023-05-04T22:13:26.256Z,48.00
2023-05-04T22:15:53.906Z,48.00
2023-05-04T22:18:21.500Z,47.90
2023-05-04T22:20:48.661Z,47.90
2023-05-04T22:23:15.845Z,47.90
2023-05-04T22:25:42.955Z,47.90
2023-05-04T22:28:10.045Z,47.90
2023-05-04T22:30:37.209Z,48.00
2023-05-04T22:33:04.403Z,48.00
2023-05-04T22:35:31.694Z,48.00
2023-05-04T22:37:58.886Z,48.00
2023-05-04T22:40:26.050Z,48.00
2023-05-04T22:42:53.155Z,48.00
2023-05-04T22:45:20.325Z,48.00
2023-05-04T22:47:47.581Z,48.00
2023-05-04T22:50:15.023Z,48.00
2023-05-04T22:52:42.267Z,48.00
2023-05-04T22:55:09.803Z,48.00
2023-05-04T22:57:36.954Z,48.10
2023-05-04T23:00:05.741Z,48.00
2023-05-04T23:02:33.797Z,48.00
2023-05-04T23:05:01.438Z,48.10
2023-05-04T23:07:28.481Z,48.10
2023-05-04T23:09:55.609Z,48.10
2023-05-04T23:12:22.834Z,48.10
2023-05-04T23:14:53.160Z,48.10
2023-05-04T23:17:20.194Z,48.20
2023-05-04T23:19:47.801Z,48.20
2023-05-04T23:22:15.279Z,48.20
2023-05-04T23:24:42.650Z,48.30
2023-05-04T23:27:11.274Z,48.40
2023-05-04T23:29:38.538Z,48.40
2023-05-04T23:32:06.046Z,48.40
2023-05-04T23:34:33.243Z,48.40
2023-05-04T23:37:00.713Z,48.40
2023-05-04T23:39:27.925Z,48.40
2023-05-04T23:41:55.050Z,48.40
2023-05-04T23:44:22.279Z,48.20
2023-05-04T23:46:49.407Z,48.20
2023-05-04T23:49:16.683Z,48.20
2023-05-04T23:51:43.825Z,48.10
2023-05-04T23:54:11.078Z,48.20
2023-05-04T23:56:38.447Z,48.10
2023-05-04T23:59:05.719Z,48.10
